Farafra, Egypt
Current Conditions -  °F | °C
As of 12:00 AM on Tuesday 25 Nov 2014 (Local Time) from HESG Reporting Station
Clear Clear  
Wind Chill: 14°   Ceiling: Unl
Heat Index: 14°   Visibility: 6mi
Dew Point:   Wind: 6mph
Humidity: 59%   Direction: 270°W
Pressure: 30"   Gusts: NA
Location:  27.05°N, 27.47°E
Report Text: HESG 242200Z 27005KT CAVOK 14/06 Q1016 NOSIG
Loading
Personal Weather Stations






























Interactive Weather Map New forecast layout! Learn more

10-Day Weather Forecast

Advertisements
Track Severe Weather on mobile